Time;durP1;ratioP1;P1;durP2;ratioP2;P2;SDS_P1;SDS_P2;PMS_P1;PMS_P2;Temp;Humidity;BMP_temperature;BMP_pressure;BME280_temperature;BME280_humidity;BME280_pressure;Samples;Min_cycle;Max_cycle;Signal;HPM_P1;HPM_P2
2022/01/16 00:00:16;;;;;;;106.10;37.90;;;;;;;;;;4998311;28;94507;-69
2022/01/16 00:05:38;;;;;;;125.03;40.08;;;;;;;;;;4962737;28;92583;-68
2022/01/16 00:08:04;;;;;;;119.00;40.63;;;;;;;;;;4989441;28;93168;-68
2022/01/16 00:10:31;;;;;;;173.27;44.65;;;;;;;;;;4994124;28;94296;-69
2022/01/16 00:12:59;;;;;;;157.07;42.58;;;;;;;;;;4990362;28;91748;-69
2022/01/16 00:15:26;;;;;;;137.10;41.30;;;;;;;;;;4998248;28;93975;-69
2022/01/16 00:20:31;;;;;;;118.97;37.75;;;;;;;;;;4989146;28;94897;-69
2022/01/16 00:22:58;;;;;;;145.75;41.35;;;;;;;;;;4996273;28;95078;-69
2022/01/16 00:25:25;;;;;;;133.93;40.95;;;;;;;;;;4989268;28;92881;-69
2022/01/16 00:27:51;;;;;;;167.68;41.10;;;;;;;;;;4994521;28;93895;-69
2022/01/16 00:30:18;;;;;;;121.55;38.15;;;;;;;;;;4990331;28;94368;-69
2022/01/16 00:32:45;;;;;;;140.18;40.47;;;;;;;;;;4998768;28;93060;-69
2022/01/16 00:35:12;;;;;;;155.90;42.35;;;;;;;;;;4990367;28;93969;-69
2022/01/16 00:37:39;;;;;;;122.50;40.47;;;;;;;;;;4993025;28;93464;-69
2022/01/16 00:40:06;;;;;;;155.68;42.33;;;;;;;;;;4991320;28;93365;-69
2022/01/16 00:42:32;;;;;;;103.30;38.20;;;;;;;;;;4990092;28;94187;-69
2022/01/16 00:44:58;;;;;;;155.68;42.95;;;;;;;;;;4994236;28;94878;-69
2022/01/16 00:47:25;;;;;;;168.27;41.17;;;;;;;;;;4991768;28;96636;-68
2022/01/16 00:49:51;;;;;;;204.35;42.50;;;;;;;;;;4998887;28;93516;-69
2022/01/16 00:52:19;;;;;;;180.07;41.42;;;;;;;;;;4990568;28;93699;-68
2022/01/16 00:54:45;;;;;;;175.65;42.08;;;;;;;;;;4995970;28;93995;-69
2022/01/16 00:57:12;;;;;;;145.18;44.47;;;;;;;;;;4994359;28;93570;-69
2022/01/16 00:59:40;;;;;;;166.38;45.15;;;;;;;;;;4996694;28;93924;-69
2022/01/16 01:02:06;;;;;;;185.00;45.88;;;;;;;;;;4999587;28;93127;-69
2022/01/16 01:04:32;;;;;;;149.40;43.22;;;;;;;;;;4991888;28;92521;-69
2022/01/16 01:06:59;;;;;;;139.27;40.70;;;;;;;;;;4993717;28;94419;-68
2022/01/16 01:09:25;;;;;;;183.98;43.92;;;;;;;;;;4998193;28;96997;-70
2022/01/16 01:11:51;;;;;;;176.65;45.33;;;;;;;;;;4993887;28;92422;-69
2022/01/16 01:16:57;;;;;;;166.93;45.42;;;;;;;;;;4992687;28;94123;-69
2022/01/16 01:19:27;;;;;;;213.05;45.05;;;;;;;;;;4992774;28;92655;-69
2022/01/16 01:21:54;;;;;;;166.10;44.00;;;;;;;;;;4995696;28;94319;-69
2022/01/16 01:24:22;;;;;;;131.43;42.22;;;;;;;;;;4992286;28;92476;-69
2022/01/16 01:27:23;;;;;;;222.00;46.60;;;;;;;;;;4999761;28;93504;-69
2022/01/16 01:29:59;;;;;;;168.35;38.58;;;;;;;;;;4996657;28;94265;-70
2022/01/16 01:32:25;;;;;;;202.10;43.65;;;;;;;;;;4994302;28;93450;-70
2022/01/16 01:34:52;;;;;;;143.50;39.70;;;;;;;;;;4990904;28;94835;-70
2022/01/16 01:37:18;;;;;;;117.78;41.30;;;;;;;;;;4992132;28;94342;-69
2022/01/16 01:39:44;;;;;;;159.82;41.80;;;;;;;;;;4992632;28;92958;-69
2022/01/16 01:42:12;;;;;;;174.52;42.65;;;;;;;;;;4996462;28;93590;-70
2022/01/16 01:52:56;;;;;;;118.30;38.60;;;;;;;;;;4993056;28;91687;-69
2022/01/16 01:55:24;;;;;;;164.20;47.45;;;;;;;;;;4992860;28;93699;-70
2022/01/16 01:57:51;;;;;;;123.30;43.03;;;;;;;;;;4993110;28;93740;-70
2022/01/16 02:00:18;;;;;;;140.82;43.22;;;;;;;;;;4991101;28;95121;-70
2022/01/16 02:05:30;;;;;;;122.15;39.83;;;;;;;;;;4994595;28;94229;-70
2022/01/16 02:07:57;;;;;;;119.22;42.50;;;;;;;;;;4993868;28;94164;-69
2022/01/16 02:10:24;;;;;;;123.40;41.65;;;;;;;;;;4993889;28;94360;-70
2022/01/16 02:12:57;;;;;;;107.88;40.33;;;;;;;;;;4992470;28;92892;-69
2022/01/16 02:31:43;;;;;;;144.40;44.67;;;;;;;;;;4993902;28;93180;-70
2022/01/16 02:36:59;;;;;;;129.18;43.55;;;;;;;;;;4985160;28;94563;-70
2022/01/16 02:39:26;;;;;;;133.85;40.03;;;;;;;;;;4995830;28;93712;-70
2022/01/16 02:41:54;;;;;;;139.25;43.10;;;;;;;;;;4995323;28;92626;-69
2022/01/16 02:44:29;;;;;;;155.10;48.00;;;;;;;;;;4990933;28;93153;-69
2022/01/16 02:46:56;;;;;;;144.30;42.35;;;;;;;;;;4991557;28;94464;-70
2022/01/16 02:49:22;;;;;;;176.75;43.97;;;;;;;;;;4993533;28;93238;-69
2022/01/16 02:51:50;;;;;;;143.07;43.95;;;;;;;;;;4993507;28;94908;-70
2022/01/16 02:54:16;;;;;;;148.77;43.40;;;;;;;;;;4989395;28;93083;-70
2022/01/16 02:56:45;;;;;;;129.13;42.75;;;;;;;;;;4993291;28;92695;-69
2022/01/16 02:59:12;;;;;;;151.98;43.25;;;;;;;;;;4998021;28;93404;-69
2022/01/16 03:01:39;;;;;;;143.93;43.38;;;;;;;;;;4990232;28;92750;-69
2022/01/16 03:04:06;;;;;;;155.93;46.35;;;;;;;;;;4996040;28;94523;-70
2022/01/16 03:06:32;;;;;;;131.27;43.42;;;;;;;;;;4991690;28;94596;-70
2022/01/16 03:08:59;;;;;;;136.35;43.65;;;;;;;;;;4991380;28;91884;-70
2022/01/16 03:11:35;;;;;;;164.63;43.33;;;;;;;;;;4992009;28;93703;-69
2022/01/16 03:14:09;;;;;;;137.35;41.83;;;;;;;;;;4998046;28;94603;-70
2022/01/16 03:16:36;;;;;;;140.23;42.90;;;;;;;;;;4993311;28;95267;-70
2022/01/16 03:21:54;;;;;;;185.95;46.60;;;;;;;;;;4991193;28;92652;-70
2022/01/16 03:24:25;;;;;;;123.13;41.22;;;;;;;;;;4993062;28;94565;-70
2022/01/16 03:26:55;;;;;;;134.15;40.63;;;;;;;;;;4991305;28;93183;-69
2022/01/16 03:29:21;;;;;;;137.10;40.53;;;;;;;;;;4990907;28;92608;-70
2022/01/16 03:31:48;;;;;;;188.35;45.90;;;;;;;;;;4999133;28;94056;-70
2022/01/16 03:34:14;;;;;;;140.13;43.00;;;;;;;;;;4992268;28;93465;-70
2022/01/16 03:36:40;;;;;;;147.88;44.45;;;;;;;;;;4997411;28;92488;-70
2022/01/16 03:39:07;;;;;;;152.27;42.15;;;;;;;;;;4990029;28;93594;-70
2022/01/16 03:41:34;;;;;;;195.38;44.83;;;;;;;;;;4988990;28;94879;-70
2022/01/16 03:44:02;;;;;;;191.48;46.03;;;;;;;;;;4990992;28;96395;-70
2022/01/16 03:46:34;;;;;;;214.25;50.30;;;;;;;;;;4995085;28;93035;-70
2022/01/16 03:49:05;;;;;;;159.20;46.47;;;;;;;;;;4995317;28;93159;-69
2022/01/16 03:51:31;;;;;;;168.75;45.35;;;;;;;;;;4990915;28;93615;-70
2022/01/16 03:53:58;;;;;;;195.52;49.28;;;;;;;;;;4993459;28;94002;-69
2022/01/16 03:56:24;;;;;;;156.60;44.20;;;;;;;;;;4995637;28;93729;-69
2022/01/16 03:58:51;;;;;;;154.98;44.40;;;;;;;;;;4994479;28;92785;-70
2022/01/16 04:01:17;;;;;;;178.60;47.28;;;;;;;;;;4990642;28;93273;-70
2022/01/16 04:03:44;;;;;;;157.75;45.67;;;;;;;;;;4997100;28;93321;-70
2022/01/16 04:06:10;;;;;;;150.98;45.97;;;;;;;;;;4988725;28;96442;-70
2022/01/16 04:08:37;;;;;;;139.52;43.13;;;;;;;;;;4990055;28;93759;-70
2022/01/16 04:11:04;;;;;;;166.45;46.42;;;;;;;;;;4992034;28;95357;-70
2022/01/16 04:13:32;;;;;;;181.63;45.88;;;;;;;;;;4994427;28;94648;-70
2022/01/16 04:15:58;;;;;;;162.70;45.90;;;;;;;;;;4990891;28;92815;-70
2022/01/16 04:18:24;;;;;;;151.35;45.80;;;;;;;;;;4995845;28;94463;-70
2022/01/16 04:20:51;;;;;;;147.10;45.85;;;;;;;;;;4991563;28;93133;-69
2022/01/16 04:23:17;;;;;;;146.00;47.10;;;;;;;;;;4993056;28;93212;-70
2022/01/16 04:25:44;;;;;;;133.35;44.30;;;;;;;;;;4989771;28;92479;-70
2022/01/16 04:28:10;;;;;;;165.43;49.28;;;;;;;;;;4992405;28;92838;-69
2022/01/16 04:30:36;;;;;;;122.18;44.45;;;;;;;;;;4990824;28;94988;-70
2022/01/16 04:33:03;;;;;;;135.02;46.15;;;;;;;;;;4995848;28;94481;-70
2022/01/16 04:35:29;;;;;;;125.10;44.80;;;;;;;;;;4991747;28;92866;-69
2022/01/16 04:37:55;;;;;;;153.48;49.10;;;;;;;;;;4994777;28;92429;-70
2022/01/16 04:40:40;;;;;;;118.20;43.97;;;;;;;;;;4989809;28;95079;-70
2022/01/16 04:45:51;;;;;;;139.77;48.60;;;;;;;;;;4993581;28;94023;-69
2022/01/16 04:48:18;;;;;;;140.70;49.22;;;;;;;;;;4994809;28;91824;-69
2022/01/16 04:50:44;;;;;;;141.63;46.83;;;;;;;;;;4993352;28;93884;-68
2022/01/16 04:53:10;;;;;;;145.93;48.88;;;;;;;;;;4992814;28;93673;-68
2022/01/16 04:55:37;;;;;;;142.88;48.40;;;;;;;;;;4991295;28;95093;-68
2022/01/16 04:58:03;;;;;;;164.18;51.75;;;;;;;;;;4999656;28;96417;-68
2022/01/16 05:00:29;;;;;;;155.90;50.50;;;;;;;;;;4995051;28;94361;-69
2022/01/16 05:02:56;;;;;;;144.23;47.88;;;;;;;;;;4997046;28;93105;-68
2022/01/16 05:05:22;;;;;;;134.18;50.63;;;;;;;;;;4997431;28;93737;-68
2022/01/16 05:07:49;;;;;;;153.82;50.35;;;;;;;;;;4993283;28;94149;-69
2022/01/16 05:10:15;;;;;;;179.38;53.55;;;;;;;;;;4993775;28;94314;-68
2022/01/16 05:12:42;;;;;;;144.02;52.00;;;;;;;;;;4994432;28;93938;-68
2022/01/16 05:17:54;;;;;;;145.88;52.83;;;;;;;;;;4988308;28;93471;-68
2022/01/16 05:20:20;;;;;;;142.75;52.85;;;;;;;;;;4997455;28;96612;-68
2022/01/16 05:22:47;;;;;;;151.00;54.40;;;;;;;;;;4993619;28;92467;-69
2022/01/16 05:25:16;;;;;;;129.70;51.47;;;;;;;;;;4995389;28;94396;-68
2022/01/16 05:27:42;;;;;;;131.90;51.55;;;;;;;;;;4985491;28;92993;-68
2022/01/16 05:30:09;;;;;;;146.52;53.75;;;;;;;;;;4994998;28;94686;-68
2022/01/16 05:32:38;;;;;;;146.52;53.50;;;;;;;;;;4992761;28;94138;-68
2022/01/16 05:35:06;;;;;;;147.48;55.63;;;;;;;;;;4994576;28;94949;-68
2022/01/16 05:37:33;;;;;;;141.00;54.55;;;;;;;;;;4993073;28;93690;-68
2022/01/16 05:39:59;;;;;;;145.88;56.55;;;;;;;;;;4993732;28;94989;-68
2022/01/16 05:42:25;;;;;;;120.85;51.60;;;;;;;;;;4994229;28;94378;-68
2022/01/16 05:44:52;;;;;;;128.85;52.90;;;;;;;;;;4991496;28;94844;-68
2022/01/16 05:47:18;;;;;;;129.13;53.72;;;;;;;;;;4994895;28;94524;-68
2022/01/16 05:49:45;;;;;;;146.07;59.72;;;;;;;;;;4985676;28;94003;-68
2022/01/16 05:52:22;;;;;;;121.60;52.80;;;;;;;;;;4993158;28;93414;-68
2022/01/16 05:54:48;;;;;;;134.15;58.28;;;;;;;;;;4993184;28;92575;-70
2022/01/16 05:57:15;;;;;;;118.68;52.97;;;;;;;;;;4995189;28;93920;-70
2022/01/16 05:59:42;;;;;;;140.38;56.78;;;;;;;;;;4993140;28;93594;-70
2022/01/16 06:02:09;;;;;;;131.23;56.13;;;;;;;;;;4999093;28;91750;-68
2022/01/16 06:04:35;;;;;;;138.38;59.13;;;;;;;;;;4997333;28;92744;-68
2022/01/16 06:07:01;;;;;;;127.13;56.33;;;;;;;;;;4995514;28;93994;-68
2022/01/16 06:09:28;;;;;;;121.45;53.65;;;;;;;;;;4992760;28;95418;-70
2022/01/16 06:11:54;;;;;;;121.57;58.33;;;;;;;;;;4984188;28;95403;-68
2022/01/16 06:14:24;;;;;;;122.10;55.15;;;;;;;;;;4997292;28;93034;-68
2022/01/16 06:16:51;;;;;;;113.53;56.58;;;;;;;;;;4990764;28;93609;-68
2022/01/16 06:19:18;;;;;;;125.75;56.22;;;;;;;;;;4995308;28;93954;-68
2022/01/16 06:21:45;;;;;;;119.00;56.30;;;;;;;;;;4992745;28;93248;-68
2022/01/16 06:24:12;;;;;;;122.80;56.03;;;;;;;;;;4992980;28;93532;-68
2022/01/16 06:26:38;;;;;;;123.28;54.03;;;;;;;;;;4992693;28;93608;-68
2022/01/16 06:29:05;;;;;;;124.55;54.38;;;;;;;;;;4993712;28;93151;-70
2022/01/16 06:31:31;;;;;;;117.55;58.45;;;;;;;;;;4987513;28;93243;-68
2022/01/16 06:34:00;;;;;;;111.63;53.53;;;;;;;;;;4994551;28;94946;-68
2022/01/16 06:36:26;;;;;;;116.18;53.10;;;;;;;;;;4997568;28;96676;-68
2022/01/16 06:38:54;;;;;;;113.65;54.75;;;;;;;;;;4991337;28;94139;-68
2022/01/16 06:41:21;;;;;;;116.25;57.33;;;;;;;;;;4996661;28;93596;-68
2022/01/16 06:43:47;;;;;;;123.47;58.22;;;;;;;;;;4989703;28;93385;-69
2022/01/16 06:46:13;;;;;;;118.55;55.15;;;;;;;;;;4990036;28;93312;-70
2022/01/16 06:48:40;;;;;;;115.55;54.72;;;;;;;;;;4991453;28;92930;-69
2022/01/16 06:51:07;;;;;;;113.55;55.60;;;;;;;;;;4994835;28;94526;-69
2022/01/16 06:53:33;;;;;;;107.13;55.08;;;;;;;;;;4980718;28;92495;-68
2022/01/16 06:56:00;;;;;;;116.38;55.58;;;;;;;;;;4976628;28;93268;-69
2022/01/16 06:58:27;;;;;;;108.22;54.00;;;;;;;;;;4984264;28;95787;-68
2022/01/16 07:00:53;;;;;;;102.85;53.60;;;;;;;;;;4981345;28;92876;-69
2022/01/16 07:03:20;;;;;;;105.07;55.13;;;;;;;;;;4983909;28;94446;-69
2022/01/16 07:05:46;;;;;;;99.45;51.70;;;;;;;;;;4980336;28;92978;-69
2022/01/16 07:08:12;;;;;;;98.88;53.45;;;;;;;;;;4989477;28;92637;-68
2022/01/16 07:10:39;;;;;;;101.75;53.60;;;;;;;;;;4982068;28;93025;-69
2022/01/16 07:13:05;;;;;;;78.90;44.88;;;;;;;;;;4990427;28;93726;-70
2022/01/16 07:15:32;;;;;;;54.30;34.35;;;;;;;;;;4989339;28;93957;-71
2022/01/16 07:17:58;;;;;;;65.68;42.15;;;;;;;;;;4989213;28;93265;-68
2022/01/16 07:20:25;;;;;;;77.60;44.30;;;;;;;;;;4984039;28;93218;-68
2022/01/16 07:22:51;;;;;;;85.82;44.92;;;;;;;;;;4974489;28;94815;-69
2022/01/16 07:25:17;;;;;;;79.07;45.72;;;;;;;;;;4983217;28;93816;-68
2022/01/16 07:27:44;;;;;;;83.22;47.03;;;;;;;;;;4989813;28;92769;-68
2022/01/16 07:30:10;;;;;;;78.45;45.67;;;;;;;;;;4984996;28;93610;-68
2022/01/16 07:32:37;;;;;;;91.60;47.58;;;;;;;;;;4981221;28;93202;-68
2022/01/16 07:35:04;;;;;;;75.65;45.28;;;;;;;;;;4981110;28;92751;-68
2022/01/16 07:37:49;;;;;;;76.85;44.53;;;;;;;;;;4987593;28;93662;-68
2022/01/16 07:40:16;;;;;;;68.55;42.17;;;;;;;;;;4973048;28;91749;-68
2022/01/16 07:42:42;;;;;;;74.97;44.42;;;;;;;;;;4981502;28;92685;-68
2022/01/16 07:45:09;;;;;;;76.43;45.13;;;;;;;;;;4991154;28;93960;-68
2022/01/16 07:47:35;;;;;;;73.35;44.50;;;;;;;;;;4973164;28;95254;-68
2022/01/16 07:50:02;;;;;;;74.38;42.28;;;;;;;;;;4979098;28;97063;-68
2022/01/16 07:52:44;;;;;;;67.88;40.88;;;;;;;;;;4987756;28;94371;-68
2022/01/16 07:55:11;;;;;;;75.78;40.97;;;;;;;;;;4971995;28;92479;-68
2022/01/16 07:57:37;;;;;;;70.63;41.70;;;;;;;;;;4990853;28;93966;-68
2022/01/16 08:00:24;;;;;;;72.10;41.08;;;;;;;;;;5003520;28;92841;-68
2022/01/16 08:02:51;;;;;;;65.22;38.55;;;;;;;;;;4991419;28;94257;-68
2022/01/16 08:05:18;;;;;;;67.90;42.08;;;;;;;;;;5001440;28;94328;-68
2022/01/16 08:07:45;;;;;;;61.40;39.35;;;;;;;;;;5004472;28;94001;-68
2022/01/16 08:10:11;;;;;;;57.75;36.92;;;;;;;;;;5006472;28;93252;-68
2022/01/16 08:12:38;;;;;;;55.40;35.85;;;;;;;;;;5011006;28;96457;-68
2022/01/16 08:15:05;;;;;;;56.70;36.03;;;;;;;;;;5002330;28;92503;-69
2022/01/16 08:17:32;;;;;;;46.20;32.58;;;;;;;;;;5011838;28;93683;-68
2022/01/16 08:19:59;;;;;;;51.17;32.70;;;;;;;;;;5004795;28;92491;-70
2022/01/16 08:22:25;;;;;;;45.88;31.25;;;;;;;;;;5006032;28;94163;-70
2022/01/16 08:24:52;;;;;;;42.42;29.08;;;;;;;;;;5010481;28;94218;-70
2022/01/16 08:27:18;;;;;;;46.47;30.23;;;;;;;;;;5002694;28;92785;-71
2022/01/16 08:29:44;;;;;;;41.85;29.45;;;;;;;;;;5005958;28;93127;-71
2022/01/16 08:32:11;;;;;;;43.03;30.08;;;;;;;;;;4997356;28;93367;-70
2022/01/16 08:34:37;;;;;;;44.20;29.10;;;;;;;;;;4998035;28;92521;-70
2022/01/16 08:37:03;;;;;;;30.63;22.33;;;;;;;;;;5003322;28;94824;-69
2022/01/16 08:39:30;;;;;;;39.65;28.25;;;;;;;;;;5009531;28;94710;-70
2022/01/16 08:41:56;;;;;;;44.47;27.83;;;;;;;;;;5009777;28;94594;-70
2022/01/16 08:44:22;;;;;;;43.78;27.23;;;;;;;;;;4998523;28;93661;-70
2022/01/16 08:46:49;;;;;;;38.20;26.55;;;;;;;;;;5012830;28;93391;-70
2022/01/16 08:49:15;;;;;;;41.88;28.50;;;;;;;;;;4997365;28;92980;-71
2022/01/16 08:51:41;;;;;;;32.75;25.23;;;;;;;;;;5004328;28;93354;-67
2022/01/16 08:54:08;;;;;;;41.92;25.90;;;;;;;;;;5012748;28;92103;-70
2022/01/16 08:56:34;;;;;;;38.47;25.67;;;;;;;;;;5011974;28;92580;-70
2022/01/16 08:59:00;;;;;;;26.08;20.15;;;;;;;;;;5004581;28;94266;-70
2022/01/16 09:01:27;;;;;;;30.75;22.63;;;;;;;;;;5009833;28;94890;-68
2022/01/16 09:03:54;;;;;;;31.33;22.75;;;;;;;;;;5010210;28;94977;-70
2022/01/16 09:06:21;;;;;;;30.05;21.63;;;;;;;;;;5008404;28;92500;-70
2022/01/16 09:08:47;;;;;;;32.42;22.17;;;;;;;;;;5001082;28;93344;-70
2022/01/16 09:11:14;;;;;;;32.15;21.42;;;;;;;;;;5008566;28;93363;-68
2022/01/16 09:13:40;;;;;;;30.65;21.90;;;;;;;;;;5007958;28;93122;-69
2022/01/16 09:16:07;;;;;;;28.73;21.05;;;;;;;;;;5004855;28;94140;-68
2022/01/16 09:18:34;;;;;;;27.98;21.98;;;;;;;;;;4999585;28;93429;-68
2022/01/16 09:21:01;;;;;;;35.80;23.08;;;;;;;;;;5010766;28;92539;-70
2022/01/16 09:23:28;;;;;;;37.17;23.92;;;;;;;;;;5002590;28;92458;-68
2022/01/16 09:25:54;;;;;;;34.83;22.70;;;;;;;;;;4993153;28;96074;-68
2022/01/16 09:28:21;;;;;;;37.63;22.08;;;;;;;;;;5003285;28;95522;-68
2022/01/16 09:30:47;;;;;;;26.35;22.13;;;;;;;;;;5002469;28;93738;-68
2022/01/16 09:33:15;;;;;;;36.08;23.15;;;;;;;;;;4988906;28;92990;-68
2022/01/16 09:35:41;;;;;;;32.22;23.40;;;;;;;;;;4992873;28;94125;-68
2022/01/16 09:38:08;;;;;;;31.67;22.42;;;;;;;;;;4992900;28;94546;-68
2022/01/16 09:40:34;;;;;;;28.90;22.33;;;;;;;;;;4993485;28;94054;-68
2022/01/16 09:43:02;;;;;;;25.90;20.30;;;;;;;;;;4994019;28;93797;-68
2022/01/16 09:45:28;;;;;;;33.45;20.05;;;;;;;;;;4995673;28;94314;-68
2022/01/16 09:47:54;;;;;;;30.80;20.02;;;;;;;;;;5003743;28;94033;-68
2022/01/16 09:50:23;;;;;;;26.27;19.17;;;;;;;;;;5001614;28;96715;-68
2022/01/16 09:52:50;;;;;;;27.33;19.10;;;;;;;;;;4996310;28;92594;-68
2022/01/16 09:55:18;;;;;;;23.27;17.50;;;;;;;;;;4991583;28;94608;-68
2022/01/16 09:57:45;;;;;;;25.98;16.40;;;;;;;;;;4992852;28;94478;-68
2022/01/16 10:00:13;;;;;;;21.67;16.33;;;;;;;;;;4992632;28;92552;-68
2022/01/16 10:02:45;;;;;;;20.10;14.05;;;;;;;;;;4992230;28;93712;-68
2022/01/16 10:05:20;;;;;;;22.20;16.73;;;;;;;;;;4992098;28;93871;-68
2022/01/16 10:07:47;;;;;;;23.65;17.27;;;;;;;;;;4991197;28;91703;-68
2022/01/16 10:10:14;;;;;;;22.80;17.90;;;;;;;;;;4981205;28;94541;-68
2022/01/16 10:12:47;;;;;;;26.67;18.02;;;;;;;;;;4975735;28;92467;-68
2022/01/16 10:15:24;;;;;;;33.38;19.00;;;;;;;;;;4987513;28;95102;-68
2022/01/16 10:17:53;;;;;;;30.58;20.23;;;;;;;;;;4978637;28;93014;-68
2022/01/16 10:20:20;;;;;;;36.90;22.83;;;;;;;;;;4983678;28;92513;-68
2022/01/16 10:22:50;;;;;;;28.13;17.25;;;;;;;;;;4979042;28;94255;-68
2022/01/16 10:25:25;;;;;;;43.22;23.45;;;;;;;;;;4989261;28;93313;-68
2022/01/16 10:27:51;;;;;;;44.22;25.58;;;;;;;;;;4983227;28;92503;-68
2022/01/16 10:30:18;;;;;;;42.97;26.95;;;;;;;;;;4972867;28;94377;-68
2022/01/16 10:32:45;;;;;;;50.45;27.17;;;;;;;;;;4974447;28;91749;-68
2022/01/16 10:35:22;;;;;;;46.47;27.55;;;;;;;;;;4980528;28;92453;-68
2022/01/16 10:37:51;;;;;;;50.60;27.58;;;;;;;;;;4976774;28;93715;-68
2022/01/16 10:40:19;;;;;;;44.00;27.77;;;;;;;;;;4981965;28;95071;-68
2022/01/16 10:42:50;;;;;;;50.88;28.73;;;;;;;;;;4973518;28;96531;-68
2022/01/16 10:45:17;;;;;;;55.25;31.63;;;;;;;;;;4979370;28;93839;-68
2022/01/16 10:47:47;;;;;;;58.17;30.52;;;;;;;;;;4981537;28;92420;-68
2022/01/16 10:50:33;;;;;;;52.13;28.95;;;;;;;;;;4984971;28;93753;-68
2022/01/16 10:53:01;;;;;;;58.25;31.42;;;;;;;;;;4979462;28;92563;-69
2022/01/16 10:55:35;;;;;;;65.47;33.08;;;;;;;;;;4981312;28;92484;-68
2022/01/16 10:58:12;;;;;;;61.17;33.58;;;;;;;;;;4983271;28;92856;-68
2022/01/16 11:00:40;;;;;;;58.25;31.92;;;;;;;;;;4975880;28;93024;-68
2022/01/16 11:03:07;;;;;;;59.50;32.00;;;;;;;;;;4983874;28;94215;-68
2022/01/16 11:05:36;;;;;;;70.45;33.83;;;;;;;;;;4973083;28;95738;-69
2022/01/16 11:08:04;;;;;;;61.10;34.38;;;;;;;;;;4990785;28;92500;-70
2022/01/16 11:10:32;;;;;;;62.60;32.92;;;;;;;;;;5002033;28;94081;-68
2022/01/16 11:13:00;;;;;;;63.90;33.50;;;;;;;;;;5003019;28;94059;-68
2022/01/16 11:15:27;;;;;;;68.75;35.83;;;;;;;;;;5002780;28;94465;-68
2022/01/16 11:17:54;;;;;;;68.07;33.90;;;;;;;;;;4984783;28;94237;-67
2022/01/16 11:20:27;;;;;;;65.55;35.40;;;;;;;;;;4995705;28;92555;-67
2022/01/16 11:23:04;;;;;;;71.38;37.63;;;;;;;;;;5000279;28;93993;-68
2022/01/16 11:25:36;;;;;;;70.90;38.50;;;;;;;;;;4999652;28;94420;-68
2022/01/16 11:28:11;;;;;;;84.45;40.28;;;;;;;;;;4984556;28;94584;-68
2022/01/16 11:30:40;;;;;;;76.55;37.55;;;;;;;;;;4987408;28;97270;-68
2022/01/16 11:33:07;;;;;;;74.85;38.35;;;;;;;;;;4990899;28;93404;-67
2022/01/16 11:35:34;;;;;;;71.93;38.72;;;;;;;;;;4993955;28;94266;-68
2022/01/16 11:38:01;;;;;;;77.35;38.05;;;;;;;;;;4983783;28;94330;-68
2022/01/16 11:40:41;;;;;;;79.45;37.97;;;;;;;;;;4982027;28;92894;-68
2022/01/16 11:43:11;;;;;;;78.55;35.53;;;;;;;;;;4986296;28;93290;-68
2022/01/16 11:46:04;;;;;;;83.10;38.63;;;;;;;;;;4989881;28;93290;-68
2022/01/16 11:48:30;;;;;;;;;;;;;;;;;;4987741;28;91784;-68
2022/01/16 11:51:32;;;;;;;73.53;34.45;;;;;;;;;;4983210;28;92725;-68
2022/01/16 11:54:04;;;;;;;76.90;35.28;;;;;;;;;;4999436;28;95261;-68
2022/01/16 11:56:40;;;;;;;72.70;36.90;;;;;;;;;;4989648;28;95503;-68
2022/01/16 11:59:15;;;;;;;70.03;35.42;;;;;;;;;;4992203;28;96465;-68
2022/01/16 12:01:46;;;;;;;74.38;35.65;;;;;;;;;;4994020;28;92475;-68
2022/01/16 12:04:45;;;;;;;69.57;32.42;;;;;;;;;;5004208;28;94672;-69
2022/01/16 12:07:17;;;;;;;71.90;35.70;;;;;;;;;;4995787;28;93185;-68
2022/01/16 12:09:49;;;;;;;68.05;32.83;;;;;;;;;;4994481;28;92535;-68
2022/01/16 12:12:15;;;;;;;88.07;39.23;;;;;;;;;;4995899;28;93206;-68
2022/01/16 12:15:02;;;;;;;79.90;36.83;;;;;;;;;;5002419;28;92616;-68
2022/01/16 12:17:28;;;;;;;82.22;38.17;;;;;;;;;;4993320;28;92598;-68
2022/01/16 12:19:55;;;;;;;85.15;36.55;;;;;;;;;;5003043;28;93996;-68
2022/01/16 12:22:41;;;;;;;77.38;38.50;;;;;;;;;;5006463;28;95322;-68
2022/01/16 12:25:15;;;;;;;77.40;38.55;;;;;;;;;;4998710;28;96570;-68
2022/01/16 12:27:44;;;;;;;75.13;38.03;;;;;;;;;;4998695;28;94542;-68
2022/01/16 12:30:10;;;;;;;87.45;39.47;;;;;;;;;;5001315;28;94195;-68
2022/01/16 12:33:08;;;;;;;90.22;41.33;;;;;;;;;;4996239;28;93873;-68
2022/01/16 12:35:41;;;;;;;78.80;38.88;;;;;;;;;;4992678;28;94713;-69
2022/01/16 12:38:12;;;;;;;86.85;39.25;;;;;;;;;;4991042;28;92388;-68
2022/01/16 12:40:39;;;;;;;92.50;39.97;;;;;;;;;;4997443;28;94115;-70
2022/01/16 12:43:10;;;;;;;82.55;40.65;;;;;;;;;;4996951;28;93192;-74
2022/01/16 12:45:40;;;;;;;79.03;37.03;;;;;;;;;;5000098;28;94174;-68
2022/01/16 12:48:07;;;;;;;74.80;37.70;;;;;;;;;;4998665;28;95397;-69
2022/01/16 12:50:33;;;;;;;80.03;38.53;;;;;;;;;;4998887;28;92957;-69
2022/01/16 12:53:00;;;;;;;85.78;37.50;;;;;;;;;;4994661;28;93917;-69
2022/01/16 12:55:27;;;;;;;81.00;38.80;;;;;;;;;;5001829;28;94269;-68
2022/01/16 12:57:53;;;;;;;89.60;39.60;;;;;;;;;;5001337;28;92556;-70
2022/01/16 13:00:20;;;;;;;82.72;39.42;;;;;;;;;;5002414;28;93980;-67
2022/01/16 13:02:53;;;;;;;90.65;40.58;;;;;;;;;;5010373;28;93758;-68
2022/01/16 13:05:19;;;;;;;90.00;40.72;;;;;;;;;;5012385;28;92534;-68
2022/01/16 13:07:58;;;;;;;76.18;37.15;;;;;;;;;;4994387;28;94023;-68
2022/01/16 13:10:25;;;;;;;;;;;;;;;;;;4997208;28;92947;-68
2022/01/16 13:12:51;;;;;;;81.38;38.63;;;;;;;;;;4997945;28;124253;-68
2022/01/16 13:15:21;;;;;;;76.30;37.63;;;;;;;;;;4995565;28;94241;-68
2022/01/16 13:17:47;;;;;;;71.72;36.00;;;;;;;;;;5000514;28;92540;-69
2022/01/16 13:20:20;;;;;;;77.90;38.35;;;;;;;;;;5002990;28;93257;-69
2022/01/16 13:22:46;;;;;;;46.58;25.48;;;;;;;;;;5004372;28;94507;-69
2022/01/16 13:25:13;;;;;;;69.78;36.85;;;;;;;;;;5004588;28;92484;-68
2022/01/16 13:27:43;;;;;;;72.70;35.63;;;;;;;;;;5006169;28;96044;-68
2022/01/16 13:30:25;;;;;;;67.80;35.80;;;;;;;;;;5013049;28;91765;-69
2022/01/16 13:32:52;;;;;;;67.35;35.53;;;;;;;;;;5012044;28;93125;-68
2022/01/16 13:35:21;;;;;;;65.65;33.63;;;;;;;;;;4997315;28;94323;-68
2022/01/16 13:37:52;;;;;;;62.65;33.28;;;;;;;;;;5002671;28;94965;-68
2022/01/16 13:40:22;;;;;;;58.78;33.13;;;;;;;;;;4996197;28;95619;-69
2022/01/16 13:43:02;;;;;;;62.05;31.98;;;;;;;;;;4996100;28;93966;-70
2022/01/16 13:45:39;;;;;;;60.80;33.58;;;;;;;;;;4989474;28;92521;-68
2022/01/16 13:48:28;;;;;;;52.95;31.15;;;;;;;;;;4982122;28;92954;-69
2022/01/16 13:50:54;;;;;;;56.83;31.45;;;;;;;;;;4996116;28;93106;-69
2022/01/16 13:53:23;;;;;;;52.55;30.10;;;;;;;;;;4992622;28;93256;-69
2022/01/16 13:55:52;;;;;;;48.67;31.10;;;;;;;;;;4987976;28;93507;-69
2022/01/16 13:58:19;;;;;;;50.60;29.45;;;;;;;;;;5004729;28;92764;-69
2022/01/16 14:00:46;;;;;;;52.33;30.67;;;;;;;;;;5003093;28;93222;-69
2022/01/16 14:03:17;;;;;;;48.03;27.45;;;;;;;;;;5006050;28;96421;-69
2022/01/16 14:05:45;;;;;;;49.72;27.10;;;;;;;;;;4998782;28;94032;-68
2022/01/16 14:08:40;;;;;;;46.67;27.48;;;;;;;;;;4995259;28;95911;-68
2022/01/16 14:11:09;;;;;;;37.40;24.75;;;;;;;;;;5003787;28;94417;-68
2022/01/16 14:13:47;;;;;;;42.47;25.98;;;;;;;;;;4999930;28;92500;-68
2022/01/16 14:16:13;;;;;;;43.38;24.25;;;;;;;;;;4992747;28;93867;-69
2022/01/16 14:19:28;;;;;;;40.22;24.92;;;;;;;;;;4986000;28;92590;-69
2022/01/16 14:24:04;;;;;;;35.03;22.42;;;;;;;;;;4991487;28;93491;-69
2022/01/16 14:26:30;;;;;;;34.35;20.98;;;;;;;;;;4986650;28;92971;-69
2022/01/16 14:28:57;;;;;;;30.98;20.25;;;;;;;;;;4986598;28;95044;-69
2022/01/16 14:31:23;;;;;;;32.80;20.85;;;;;;;;;;4988654;28;93085;-69
2022/01/16 14:33:51;;;;;;;32.65;20.75;;;;;;;;;;4991288;28;93176;-69
2022/01/16 14:36:17;;;;;;;39.88;20.92;;;;;;;;;;4988829;28;94194;-69
2022/01/16 14:38:58;;;;;;;31.02;20.83;;;;;;;;;;4978064;28;92444;-69
2022/01/16 14:41:25;;;;;;;34.17;20.75;;;;;;;;;;4991936;28;93372;-69
2022/01/16 14:43:54;;;;;;;33.42;20.45;;;;;;;;;;4972150;28;93316;-68
2022/01/16 14:46:21;;;;;;;35.70;21.20;;;;;;;;;;4973158;28;92385;-69
2022/01/16 14:48:48;;;;;;;34.70;22.08;;;;;;;;;;4974350;28;93230;-69
2022/01/16 14:51:14;;;;;;;39.15;21.85;;;;;;;;;;4971723;28;94336;-69
2022/01/16 14:53:41;;;;;;;44.72;24.25;;;;;;;;;;4972257;28;95067;-69
2022/01/16 14:56:07;;;;;;;42.97;23.98;;;;;;;;;;4992412;28;96049;-69
2022/01/16 14:58:34;;;;;;;41.22;24.60;;;;;;;;;;4971910;28;93695;-69
2022/01/16 15:01:00;;;;;;;44.92;26.75;;;;;;;;;;4998533;28;94208;-69
2022/01/16 15:03:27;;;;;;;51.03;27.73;;;;;;;;;;4992431;28;93606;-69
2022/01/16 15:05:58;;;;;;;46.53;27.42;;;;;;;;;;5001579;28;93246;-68
2022/01/16 15:08:24;;;;;;;49.25;29.13;;;;;;;;;;4999008;28;93037;-69